sensor_id;sensor_type;location;lat;lon;timestamp;temperature;humidity
10306;DHT22;5198;52.382;9.020;2022-10-17T00:04:00;14.90;99.90
10306;DHT22;5198;52.382;9.020;2022-10-17T00:08:03;14.90;99.90
10306;DHT22;5198;52.382;9.020;2022-10-17T00:12:06;14.80;99.90
10306;DHT22;5198;52.382;9.020;2022-10-17T00:16:10;14.80;99.90
10306;DHT22;5198;52.382;9.020;2022-10-17T00:20:14;14.80;99.90
10306;DHT22;5198;52.382;9.020;2022-10-17T00:24:17;14.70;99.90
10306;DHT22;5198;52.382;9.020;2022-10-17T00:28:21;14.60;99.90
10306;DHT22;5198;52.382;9.020;2022-10-17T00:32:25;14.60;99.90
10306;DHT22;5198;52.382;9.020;2022-10-17T00:36:29;14.50;99.90
10306;DHT22;5198;52.382;9.020;2022-10-17T00:40:32;14.40;99.90
10306;DHT22;5198;52.382;9.020;2022-10-17T00:48:59;14.40;99.90
10306;DHT22;5198;52.382;9.020;2022-10-17T00:53:03;14.30;99.90
10306;DHT22;5198;52.382;9.020;2022-10-17T00:57:06;14.30;99.90
10306;DHT22;5198;52.382;9.020;2022-10-17T01:01:09;14.20;99.90
10306;DHT22;5198;52.382;9.020;2022-10-17T01:05:15;14.20;99.90
10306;DHT22;5198;52.382;9.020;2022-10-17T01:09:18;14.20;99.90
10306;DHT22;5198;52.382;9.020;2022-10-17T01:13:22;14.20;99.90
10306;DHT22;5198;52.382;9.020;2022-10-17T01:17:28;14.10;99.90
10306;DHT22;5198;52.382;9.020;2022-10-17T01:21:39;14.10;99.90
10306;DHT22;5198;52.382;9.020;2022-10-17T01:25:47;14.00;99.90
10306;DHT22;5198;52.382;9.020;2022-10-17T01:30:00;14.00;99.90
10306;DHT22;5198;52.382;9.020;2022-10-17T01:34:08;13.90;99.90
10306;DHT22;5198;52.382;9.020;2022-10-17T01:38:14;13.90;99.90
10306;DHT22;5198;52.382;9.020;2022-10-17T01:42:21;13.80;99.90
10306;DHT22;5198;52.382;9.020;2022-10-17T01:46:26;13.80;99.90
10306;DHT22;5198;52.382;9.020;2022-10-17T01:50:33;13.80;99.90
10306;DHT22;5198;52.382;9.020;2022-10-17T01:54:38;13.70;99.90
10306;DHT22;5198;52.382;9.020;2022-10-17T01:58:42;13.70;99.90
10306;DHT22;5198;52.382;9.020;2022-10-17T02:02:47;13.70;99.90
10306;DHT22;5198;52.382;9.020;2022-10-17T02:06:52;13.60;99.90
10306;DHT22;5198;52.382;9.020;2022-10-17T02:10:56;13.60;99.90
10306;DHT22;5198;52.382;9.020;2022-10-17T02:15:08;13.50;99.90
10306;DHT22;5198;52.382;9.020;2022-10-17T02:23:35;13.50;99.90
10306;DHT22;5198;52.382;9.020;2022-10-17T02:27:42;13.40;99.90
10306;DHT22;5198;52.382;9.020;2022-10-17T02:31:46;13.40;99.90
10306;DHT22;5198;52.382;9.020;2022-10-17T02:35:52;13.40;99.90
10306;DHT22;5198;52.382;9.020;2022-10-17T02:39:58;13.40;99.90
10306;DHT22;5198;52.382;9.020;2022-10-17T02:44:01;13.30;99.90
10306;DHT22;5198;52.382;9.020;2022-10-17T02:48:06;13.30;99.90
10306;DHT22;5198;52.382;9.020;2022-10-17T02:52:11;13.30;99.90
10306;DHT22;5198;52.382;9.020;2022-10-17T02:56:17;13.30;99.90
10306;DHT22;5198;52.382;9.020;2022-10-17T03:00:21;13.20;99.90
10306;DHT22;5198;52.382;9.020;2022-10-17T03:04:24;13.20;99.90
10306;DHT22;5198;52.382;9.020;2022-10-17T03:08:27;13.20;99.90
10306;DHT22;5198;52.382;9.020;2022-10-17T03:12:31;13.30;99.90
10306;DHT22;5198;52.382;9.020;2022-10-17T03:16:34;13.40;99.90
10306;DHT22;5198;52.382;9.020;2022-10-17T03:20:37;13.50;99.90
10306;DHT22;5198;52.382;9.020;2022-10-17T03:24:40;13.60;99.90
10306;DHT22;5198;52.382;9.020;2022-10-17T03:28:44;13.70;99.90
10306;DHT22;5198;52.382;9.020;2022-10-17T03:32:51;13.80;99.90
10306;DHT22;5198;52.382;9.020;2022-10-17T03:36:54;13.90;99.90
10306;DHT22;5198;52.382;9.020;2022-10-17T03:40:56;14.00;99.90
10306;DHT22;5198;52.382;9.020;2022-10-17T03:45:01;14.10;99.90
10306;DHT22;5198;52.382;9.020;2022-10-17T03:49:04;14.20;99.90
10306;DHT22;5198;52.382;9.020;2022-10-17T03:53:06;14.20;99.90
10306;DHT22;5198;52.382;9.020;2022-10-17T03:57:09;14.40;99.90
10306;DHT22;5198;52.382;9.020;2022-10-17T04:01:14;14.50;99.90
10306;DHT22;5198;52.382;9.020;2022-10-17T04:05:17;14.50;99.90
10306;DHT22;5198;52.382;9.020;2022-10-17T04:09:20;14.60;99.90
10306;DHT22;5198;52.382;9.020;2022-10-17T04:13:23;14.70;99.90
10306;DHT22;5198;52.382;9.020;2022-10-17T04:17:27;14.70;99.90
10306;DHT22;5198;52.382;9.020;2022-10-17T04:21:38;14.80;99.90
10306;DHT22;5198;52.382;9.020;2022-10-17T04:25:41;14.80;99.90
10306;DHT22;5198;52.382;9.020;2022-10-17T04:29:44;14.90;99.90
10306;DHT22;5198;52.382;9.020;2022-10-17T04:33:49;15.00;99.90
10306;DHT22;5198;52.382;9.020;2022-10-17T04:37:52;15.10;99.90
10306;DHT22;5198;52.382;9.020;2022-10-17T04:41:55;15.10;99.90
10306;DHT22;5198;52.382;9.020;2022-10-17T04:45:58;15.20;99.90
10306;DHT22;5198;52.382;9.020;2022-10-17T04:50:03;15.30;99.90
10306;DHT22;5198;52.382;9.020;2022-10-17T04:54:06;15.30;99.90
10306;DHT22;5198;52.382;9.020;2022-10-17T04:58:09;15.30;99.90
10306;DHT22;5198;52.382;9.020;2022-10-17T05:02:12;15.40;99.90
10306;DHT22;5198;52.382;9.020;2022-10-17T05:06:18;15.40;99.90
10306;DHT22;5198;52.382;9.020;2022-10-17T05:10:21;15.50;99.90
10306;DHT22;5198;52.382;9.020;2022-10-17T05:14:24;15.50;99.90
10306;DHT22;5198;52.382;9.020;2022-10-17T05:18:27;15.50;99.90
10306;DHT22;5198;52.382;9.020;2022-10-17T05:22:32;15.60;99.90
10306;DHT22;5198;52.382;9.020;2022-10-17T05:26:41;15.70;99.90
10306;DHT22;5198;52.382;9.020;2022-10-17T05:30:44;15.70;99.90
10306;DHT22;5198;52.382;9.020;2022-10-17T05:34:47;15.70;99.90
10306;DHT22;5198;52.382;9.020;2022-10-17T05:38:52;15.80;99.90
10306;DHT22;5198;52.382;9.020;2022-10-17T05:42:54;15.80;99.90
10306;DHT22;5198;52.382;9.020;2022-10-17T05:46:57;15.90;99.90
10306;DHT22;5198;52.382;9.020;2022-10-17T05:51:01;15.90;99.90
10306;DHT22;5198;52.382;9.020;2022-10-17T05:55:06;16.00;99.90
10306;DHT22;5198;52.382;9.020;2022-10-17T05:59:09;15.90;99.90
10306;DHT22;5198;52.382;9.020;2022-10-17T06:03:12;15.90;99.90
10306;DHT22;5198;52.382;9.020;2022-10-17T06:07:14;15.90;99.90
10306;DHT22;5198;52.382;9.020;2022-10-17T06:11:19;16.00;99.90
10306;DHT22;5198;52.382;9.020;2022-10-17T06:15:22;16.00;99.90
10306;DHT22;5198;52.382;9.020;2022-10-17T06:19:24;16.00;99.90
10306;DHT22;5198;52.382;9.020;2022-10-17T06:23:27;16.10;99.90
10306;DHT22;5198;52.382;9.020;2022-10-17T06:27:32;16.10;99.90
10306;DHT22;5198;52.382;9.020;2022-10-17T06:31:34;16.10;99.90
10306;DHT22;5198;52.382;9.020;2022-10-17T06:35:37;16.10;99.90
10306;DHT22;5198;52.382;9.020;2022-10-17T06:39:40;16.20;99.90
10306;DHT22;5198;52.382;9.020;2022-10-17T06:43:45;16.20;99.90
10306;DHT22;5198;52.382;9.020;2022-10-17T06:47:48;16.30;99.90
10306;DHT22;5198;52.382;9.020;2022-10-17T06:51:51;16.40;99.90
10306;DHT22;5198;52.382;9.020;2022-10-17T06:55:54;16.40;99.90
10306;DHT22;5198;52.382;9.020;2022-10-17T07:00:03;16.50;99.90
10306;DHT22;5198;52.382;9.020;2022-10-17T07:04:07;16.50;99.90
10306;DHT22;5198;52.382;9.020;2022-10-17T07:08:10;16.60;99.90
10306;DHT22;5198;52.382;9.020;2022-10-17T07:12:13;16.70;99.90
10306;DHT22;5198;52.382;9.020;2022-10-17T07:16:17;16.90;99.90
10306;DHT22;5198;52.382;9.020;2022-10-17T07:20:21;16.90;99.90
10306;DHT22;5198;52.382;9.020;2022-10-17T07:24:24;17.10;99.90
10306;DHT22;5198;52.382;9.020;2022-10-17T07:28:27;17.10;99.90
10306;DHT22;5198;52.382;9.020;2022-10-17T07:32:31;17.20;99.90
10306;DHT22;5198;52.382;9.020;2022-10-17T07:36:34;17.30;99.90
10306;DHT22;5198;52.382;9.020;2022-10-17T07:40:37;17.40;99.90
10306;DHT22;5198;52.382;9.020;2022-10-17T07:44:40;17.50;99.90
10306;DHT22;5198;52.382;9.020;2022-10-17T07:48:44;17.60;99.90
10306;DHT22;5198;52.382;9.020;2022-10-17T07:52:47;17.70;99.90
10306;DHT22;5198;52.382;9.020;2022-10-17T07:56:50;17.80;99.90
10306;DHT22;5198;52.382;9.020;2022-10-17T08:00:53;18.00;99.90
10306;DHT22;5198;52.382;9.020;2022-10-17T08:04:57;18.20;99.90
10306;DHT22;5198;52.382;9.020;2022-10-17T08:09:00;18.40;99.90
10306;DHT22;5198;52.382;9.020;2022-10-17T08:13:04;18.60;99.90
10306;DHT22;5198;52.382;9.020;2022-10-17T08:17:07;18.80;99.90
10306;DHT22;5198;52.382;9.020;2022-10-17T08:21:11;19.00;99.90
10306;DHT22;5198;52.382;9.020;2022-10-17T08:25:14;19.10;99.90
10306;DHT22;5198;52.382;9.020;2022-10-17T08:29:18;19.20;99.90
10306;DHT22;5198;52.382;9.020;2022-10-17T08:33:21;19.30;99.90
10306;DHT22;5198;52.382;9.020;2022-10-17T08:37:25;19.30;99.90
10306;DHT22;5198;52.382;9.020;2022-10-17T08:41:33;19.40;99.90
10306;DHT22;5198;52.382;9.020;2022-10-17T08:45:39;19.50;99.90
10306;DHT22;5198;52.382;9.020;2022-10-17T08:49:46;19.60;99.90
10306;DHT22;5198;52.382;9.020;2022-10-17T08:53:54;19.70;99.90
10306;DHT22;5198;52.382;9.020;2022-10-17T08:57:57;19.70;99.90
10306;DHT22;5198;52.382;9.020;2022-10-17T09:02:02;19.80;99.90
10306;DHT22;5198;52.382;9.020;2022-10-17T09:06:09;19.80;99.90
10306;DHT22;5198;52.382;9.020;2022-10-17T09:10:17;19.90;99.90
10306;DHT22;5198;52.382;9.020;2022-10-17T09:14:25;20.00;99.90
10306;DHT22;5198;52.382;9.020;2022-10-17T09:18:32;20.20;99.90
10306;DHT22;5198;52.382;9.020;2022-10-17T09:22:38;20.50;99.90
10306;DHT22;5198;52.382;9.020;2022-10-17T09:26:44;20.80;99.90
10306;DHT22;5198;52.382;9.020;2022-10-17T09:30:49;21.20;99.90
10306;DHT22;5198;52.382;9.020;2022-10-17T09:34:53;21.50;99.90
10306;DHT22;5198;52.382;9.020;2022-10-17T09:38:57;21.50;99.90
10306;DHT22;5198;52.382;9.020;2022-10-17T09:43:02;21.80;99.90
10306;DHT22;5198;52.382;9.020;2022-10-17T09:47:12;21.80;99.90
10306;DHT22;5198;52.382;9.020;2022-10-17T09:51:16;21.90;99.90
10306;DHT22;5198;52.382;9.020;2022-10-17T09:55:30;22.00;99.90
10306;DHT22;5198;52.382;9.020;2022-10-17T09:59:37;22.00;99.90
10306;DHT22;5198;52.382;9.020;2022-10-17T10:11:47;22.40;99.90
10306;DHT22;5198;52.382;9.020;2022-10-17T10:15:52;22.50;99.90
10306;DHT22;5198;52.382;9.020;2022-10-17T10:19:55;22.80;99.90
10306;DHT22;5198;52.382;9.020;2022-10-17T10:24:02;23.50;99.90
10306;DHT22;5198;52.382;9.020;2022-10-17T10:32:10;24.30;99.90
10306;DHT22;5198;52.382;9.020;2022-10-17T10:40:18;24.80;99.90
10306;DHT22;5198;52.382;9.020;2022-10-17T10:44:22;24.70;99.90
10306;DHT22;5198;52.382;9.020;2022-10-17T10:48:29;24.70;99.90
10306;DHT22;5198;52.382;9.020;2022-10-17T10:52:33;24.90;99.90
10306;DHT22;5198;52.382;9.020;2022-10-17T10:56:39;25.20;99.90
10306;DHT22;5198;52.382;9.020;2022-10-17T11:00:44;25.40;99.90
10306;DHT22;5198;52.382;9.020;2022-10-17T11:04:49;26.10;99.90
10306;DHT22;5198;52.382;9.020;2022-10-17T11:08:59;26.10;99.90
10306;DHT22;5198;52.382;9.020;2022-10-17T11:13:08;26.50;99.90
10306;DHT22;5198;52.382;9.020;2022-10-17T11:17:19;26.50;99.90
10306;DHT22;5198;52.382;9.020;2022-10-17T11:21:26;26.40;99.90
10306;DHT22;5198;52.382;9.020;2022-10-17T11:25:31;26.20;99.90
10306;DHT22;5198;52.382;9.020;2022-10-17T11:29:35;26.00;99.90
10306;DHT22;5198;52.382;9.020;2022-10-17T11:33:43;25.80;99.90
10306;DHT22;5198;52.382;9.020;2022-10-17T11:37:50;25.50;99.90
10306;DHT22;5198;52.382;9.020;2022-10-17T11:41:56;25.30;99.90
10306;DHT22;5198;52.382;9.020;2022-10-17T11:46:06;25.10;99.90
10306;DHT22;5198;52.382;9.020;2022-10-17T11:50:18;24.80;99.90
10306;DHT22;5198;52.382;9.020;2022-10-17T11:54:44;24.60;99.90
10306;DHT22;5198;52.382;9.020;2022-10-17T11:58:49;24.30;99.90
10306;DHT22;5198;52.382;9.020;2022-10-17T12:02:56;24.10;99.90
10306;DHT22;5198;52.382;9.020;2022-10-17T12:07:04;23.90;99.90
10306;DHT22;5198;52.382;9.020;2022-10-17T12:11:26;23.70;99.90
10306;DHT22;5198;52.382;9.020;2022-10-17T12:15:30;23.60;99.90
10306;DHT22;5198;52.382;9.020;2022-10-17T12:19:33;23.50;99.90
10306;DHT22;5198;52.382;9.020;2022-10-17T12:23:36;23.40;99.90
10306;DHT22;5198;52.382;9.020;2022-10-17T12:27:42;23.30;99.90
10306;DHT22;5198;52.382;9.020;2022-10-17T12:31:46;23.20;99.90
10306;DHT22;5198;52.382;9.020;2022-10-17T12:35:49;23.10;99.90
10306;DHT22;5198;52.382;9.020;2022-10-17T12:39:52;23.10;99.90
10306;DHT22;5198;52.382;9.020;2022-10-17T12:43:57;23.00;99.90
10306;DHT22;5198;52.382;9.020;2022-10-17T12:48:00;22.90;99.90
10306;DHT22;5198;52.382;9.020;2022-10-17T12:56:29;22.70;99.90
10306;DHT22;5198;52.382;9.020;2022-10-17T13:00:34;22.60;99.90
10306;DHT22;5198;52.382;9.020;2022-10-17T13:04:38;22.60;99.90
10306;DHT22;5198;52.382;9.020;2022-10-17T13:08:43;22.60;99.90
10306;DHT22;5198;52.382;9.020;2022-10-17T13:12:46;22.60;99.90
10306;DHT22;5198;52.382;9.020;2022-10-17T13:16:52;22.60;99.90
10306;DHT22;5198;52.382;9.020;2022-10-17T13:20:56;22.60;99.90
10306;DHT22;5198;52.382;9.020;2022-10-17T13:25:06;22.50;99.90
10306;DHT22;5198;52.382;9.020;2022-10-17T13:29:10;22.40;99.90
10306;DHT22;5198;52.382;9.020;2022-10-17T13:33:32;22.40;99.90
10306;DHT22;5198;52.382;9.020;2022-10-17T13:37:36;22.40;99.90
10306;DHT22;5198;52.382;9.020;2022-10-17T13:41:39;22.30;99.90
10306;DHT22;5198;52.382;9.020;2022-10-17T13:45:44;22.30;99.90
10306;DHT22;5198;52.382;9.020;2022-10-17T13:49:49;22.30;99.90
10306;DHT22;5198;52.382;9.020;2022-10-17T13:53:56;22.30;99.90
10306;DHT22;5198;52.382;9.020;2022-10-17T13:58:08;22.30;99.90
10306;DHT22;5198;52.382;9.020;2022-10-17T14:02:12;22.20;99.90
10306;DHT22;5198;52.382;9.020;2022-10-17T14:06:17;22.20;99.90
10306;DHT22;5198;52.382;9.020;2022-10-17T14:10:21;22.20;99.90
10306;DHT22;5198;52.382;9.020;2022-10-17T14:14:25;22.20;99.90
10306;DHT22;5198;52.382;9.020;2022-10-17T14:18:29;22.10;99.90
10306;DHT22;5198;52.382;9.020;2022-10-17T14:22:38;22.10;99.90
10306;DHT22;5198;52.382;9.020;2022-10-17T14:26:47;22.10;99.90
10306;DHT22;5198;52.382;9.020;2022-10-17T14:30:51;22.00;99.90
10306;DHT22;5198;52.382;9.020;2022-10-17T14:34:59;22.00;99.90
10306;DHT22;5198;52.382;9.020;2022-10-17T14:39:24;21.90;99.90
10306;DHT22;5198;52.382;9.020;2022-10-17T14:43:28;21.90;99.90
10306;DHT22;5198;52.382;9.020;2022-10-17T14:47:32;21.90;99.90
10306;DHT22;5198;52.382;9.020;2022-10-17T14:56:34;21.80;99.90
10306;DHT22;5198;52.382;9.020;2022-10-17T15:00:37;21.70;99.90
10306;DHT22;5198;52.382;9.020;2022-10-17T15:04:40;21.70;99.90
10306;DHT22;5198;52.382;9.020;2022-10-17T15:08:43;21.60;99.90
10306;DHT22;5198;52.382;9.020;2022-10-17T15:12:48;21.60;99.90
10306;DHT22;5198;52.382;9.020;2022-10-17T15:17:00;21.50;99.90
10306;DHT22;5198;52.382;9.020;2022-10-17T15:21:05;21.40;99.90
10306;DHT22;5198;52.382;9.020;2022-10-17T15:25:27;21.40;99.90
10306;DHT22;5198;52.382;9.020;2022-10-17T15:29:32;21.30;99.90
10306;DHT22;5198;52.382;9.020;2022-10-17T15:33:35;21.20;99.90
10306;DHT22;5198;52.382;9.020;2022-10-17T15:37:38;21.20;99.90
10306;DHT22;5198;52.382;9.020;2022-10-17T15:41:41;21.10;99.90
10306;DHT22;5198;52.382;9.020;2022-10-17T15:45:45;21.10;99.90
10306;DHT22;5198;52.382;9.020;2022-10-17T15:49:49;21.00;99.90
10306;DHT22;5198;52.382;9.020;2022-10-17T15:53:51;21.00;99.90
10306;DHT22;5198;52.382;9.020;2022-10-17T15:57:55;21.00;99.90
10306;DHT22;5198;52.382;9.020;2022-10-17T16:02:00;21.00;99.90
10306;DHT22;5198;52.382;9.020;2022-10-17T16:06:03;20.90;99.90
10306;DHT22;5198;52.382;9.020;2022-10-17T16:10:06;20.90;99.90
10306;DHT22;5198;52.382;9.020;2022-10-17T16:14:11;20.90;99.90
10306;DHT22;5198;52.382;9.020;2022-10-17T16:18:16;20.80;99.90
10306;DHT22;5198;52.382;9.020;2022-10-17T16:22:22;20.80;99.90
10306;DHT22;5198;52.382;9.020;2022-10-17T16:26:26;20.70;99.90
10306;DHT22;5198;52.382;9.020;2022-10-17T16:30:31;20.70;99.90
10306;DHT22;5198;52.382;9.020;2022-10-17T16:34:35;20.70;99.90
10306;DHT22;5198;52.382;9.020;2022-10-17T16:38:39;20.60;99.90
10306;DHT22;5198;52.382;9.020;2022-10-17T16:42:42;20.60;99.90
10306;DHT22;5198;52.382;9.020;2022-10-17T16:46:45;20.60;99.90
10306;DHT22;5198;52.382;9.020;2022-10-17T16:50:49;20.50;99.90
10306;DHT22;5198;52.382;9.020;2022-10-17T16:54:52;20.40;99.90
10306;DHT22;5198;52.382;9.020;2022-10-17T16:58:55;20.40;99.90
10306;DHT22;5198;52.382;9.020;2022-10-17T17:02:58;20.40;99.90
10306;DHT22;5198;52.382;9.020;2022-10-17T17:07:02;20.30;99.90
10306;DHT22;5198;52.382;9.020;2022-10-17T17:11:05;20.30;99.90
10306;DHT22;5198;52.382;9.020;2022-10-17T17:15:08;20.20;99.90
10306;DHT22;5198;52.382;9.020;2022-10-17T17:19:11;20.20;99.90
10306;DHT22;5198;52.382;9.020;2022-10-17T17:23:16;20.10;99.90
10306;DHT22;5198;52.382;9.020;2022-10-17T17:27:19;20.10;99.90
10306;DHT22;5198;52.382;9.020;2022-10-17T17:31:22;20.00;99.90
10306;DHT22;5198;52.382;9.020;2022-10-17T17:35:26;20.00;99.90
10306;DHT22;5198;52.382;9.020;2022-10-17T17:39:30;19.90;99.90
10306;DHT22;5198;52.382;9.020;2022-10-17T17:43:34;19.90;99.90
10306;DHT22;5198;52.382;9.020;2022-10-17T17:47:37;19.80;99.90
10306;DHT22;5198;52.382;9.020;2022-10-17T17:51:40;19.80;99.90
10306;DHT22;5198;52.382;9.020;2022-10-17T17:55:48;19.70;99.90
10306;DHT22;5198;52.382;9.020;2022-10-17T18:00:02;19.70;99.90
10306;DHT22;5198;52.382;9.020;2022-10-17T18:04:06;19.70;99.90
10306;DHT22;5198;52.382;9.020;2022-10-17T18:08:09;19.60;99.90
10306;DHT22;5198;52.382;9.020;2022-10-17T18:12:13;19.60;99.90
10306;DHT22;5198;52.382;9.020;2022-10-17T18:16:16;19.60;99.90
10306;DHT22;5198;52.382;9.020;2022-10-17T18:20:19;19.50;99.90
10306;DHT22;5198;52.382;9.020;2022-10-17T18:24:22;19.50;99.90
10306;DHT22;5198;52.382;9.020;2022-10-17T18:28:26;19.50;99.90
10306;DHT22;5198;52.382;9.020;2022-10-17T18:32:29;19.50;99.90
10306;DHT22;5198;52.382;9.020;2022-10-17T18:36:33;19.40;99.90
10306;DHT22;5198;52.382;9.020;2022-10-17T18:40:37;19.40;99.90
10306;DHT22;5198;52.382;9.020;2022-10-17T18:44:42;19.40;99.90
10306;DHT22;5198;52.382;9.020;2022-10-17T18:48:45;19.30;99.90
10306;DHT22;5198;52.382;9.020;2022-10-17T18:52:48;19.30;99.90
10306;DHT22;5198;52.382;9.020;2022-10-17T18:56:51;19.30;99.90
10306;DHT22;5198;52.382;9.020;2022-10-17T19:00:56;19.20;99.90
10306;DHT22;5198;52.382;9.020;2022-10-17T19:05:03;19.20;99.90
10306;DHT22;5198;52.382;9.020;2022-10-17T19:09:07;19.20;99.90
10306;DHT22;5198;52.382;9.020;2022-10-17T19:13:10;19.10;99.90
10306;DHT22;5198;52.382;9.020;2022-10-17T19:17:14;19.10;99.90
10306;DHT22;5198;52.382;9.020;2022-10-17T19:21:17;19.00;99.90
10306;DHT22;5198;52.382;9.020;2022-10-17T19:25:22;19.00;99.90
10306;DHT22;5198;52.382;9.020;2022-10-17T19:29:26;19.00;99.90
10306;DHT22;5198;52.382;9.020;2022-10-17T19:33:33;19.00;99.90
10306;DHT22;5198;52.382;9.020;2022-10-17T19:37:36;18.90;99.90
10306;DHT22;5198;52.382;9.020;2022-10-17T19:41:39;18.90;99.90
10306;DHT22;5198;52.382;9.020;2022-10-17T19:45:42;18.90;99.90
10306;DHT22;5198;52.382;9.020;2022-10-17T19:49:47;18.90;99.90
10306;DHT22;5198;52.382;9.020;2022-10-17T19:53:50;18.80;99.90
10306;DHT22;5198;52.382;9.020;2022-10-17T19:57:54;18.80;99.90
10306;DHT22;5198;52.382;9.020;2022-10-17T20:01:57;18.80;99.90
10306;DHT22;5198;52.382;9.020;2022-10-17T20:06:01;18.80;99.90
10306;DHT22;5198;52.382;9.020;2022-10-17T20:10:05;18.70;99.90
10306;DHT22;5198;52.382;9.020;2022-10-17T20:14:08;18.70;99.90
10306;DHT22;5198;52.382;9.020;2022-10-17T20:18:11;18.60;99.90
10306;DHT22;5198;52.382;9.020;2022-10-17T20:22:15;18.60;99.90
10306;DHT22;5198;52.382;9.020;2022-10-17T20:26:19;18.60;99.90
10306;DHT22;5198;52.382;9.020;2022-10-17T20:30:41;18.60;99.90
10306;DHT22;5198;52.382;9.020;2022-10-17T20:34:44;18.50;99.90
10306;DHT22;5198;52.382;9.020;2022-10-17T20:38:48;18.50;99.90
10306;DHT22;5198;52.382;9.020;2022-10-17T20:42:53;18.50;99.90
10306;DHT22;5198;52.382;9.020;2022-10-17T20:46:56;18.50;99.90
10306;DHT22;5198;52.382;9.020;2022-10-17T20:51:05;18.40;99.90
10306;DHT22;5198;52.382;9.020;2022-10-17T20:55:09;18.40;99.90
10306;DHT22;5198;52.382;9.020;2022-10-17T20:59:13;18.40;99.90
10306;DHT22;5198;52.382;9.020;2022-10-17T21:03:16;18.30;99.90
10306;DHT22;5198;52.382;9.020;2022-10-17T21:07:19;18.40;99.90
10306;DHT22;5198;52.382;9.020;2022-10-17T21:11:25;18.30;99.90
10306;DHT22;5198;52.382;9.020;2022-10-17T21:15:28;18.30;99.90
10306;DHT22;5198;52.382;9.020;2022-10-17T21:19:32;18.30;99.90
10306;DHT22;5198;52.382;9.020;2022-10-17T21:23:35;18.20;99.90
10306;DHT22;5198;52.382;9.020;2022-10-17T21:27:39;18.20;99.90
10306;DHT22;5198;52.382;9.020;2022-10-17T21:31:42;18.10;99.90
10306;DHT22;5198;52.382;9.020;2022-10-17T21:35:46;18.10;99.90
10306;DHT22;5198;52.382;9.020;2022-10-17T21:39:49;18.10;99.90
10306;DHT22;5198;52.382;9.020;2022-10-17T21:43:55;18.10;99.90
10306;DHT22;5198;52.382;9.020;2022-10-17T21:47:58;18.00;99.90
10306;DHT22;5198;52.382;9.020;2022-10-17T21:52:13;18.00;99.90
10306;DHT22;5198;52.382;9.020;2022-10-17T21:56:17;18.00;99.90
10306;DHT22;5198;52.382;9.020;2022-10-17T22:00:22;18.00;99.90
10306;DHT22;5198;52.382;9.020;2022-10-17T22:04:26;18.00;99.90
10306;DHT22;5198;52.382;9.020;2022-10-17T22:08:29;17.90;99.90
10306;DHT22;5198;52.382;9.020;2022-10-17T22:12:33;17.90;99.90
10306;DHT22;5198;52.382;9.020;2022-10-17T22:16:37;17.80;99.90
10306;DHT22;5198;52.382;9.020;2022-10-17T22:20:40;17.80;99.90
10306;DHT22;5198;52.382;9.020;2022-10-17T22:24:43;17.70;99.90
10306;DHT22;5198;52.382;9.020;2022-10-17T22:28:46;17.70;99.90
10306;DHT22;5198;52.382;9.020;2022-10-17T22:32:50;17.60;99.90
10306;DHT22;5198;52.382;9.020;2022-10-17T22:36:53;17.60;99.90
10306;DHT22;5198;52.382;9.020;2022-10-17T22:40:56;17.60;99.90
10306;DHT22;5198;52.382;9.020;2022-10-17T22:44:59;17.50;99.90
10306;DHT22;5198;52.382;9.020;2022-10-17T22:49:05;17.50;99.90
10306;DHT22;5198;52.382;9.020;2022-10-17T22:53:08;17.50;99.90
10306;DHT22;5198;52.382;9.020;2022-10-17T22:57:12;17.50;99.90
10306;DHT22;5198;52.382;9.020;2022-10-17T23:01:16;17.40;99.90
10306;DHT22;5198;52.382;9.020;2022-10-17T23:05:20;17.40;99.90
10306;DHT22;5198;52.382;9.020;2022-10-17T23:09:23;17.40;99.90
10306;DHT22;5198;52.382;9.020;2022-10-17T23:13:27;17.30;99.90
10306;DHT22;5198;52.382;9.020;2022-10-17T23:17:30;17.30;99.90
10306;DHT22;5198;52.382;9.020;2022-10-17T23:21:34;17.30;99.90
10306;DHT22;5198;52.382;9.020;2022-10-17T23:25:37;17.30;99.90
10306;DHT22;5198;52.382;9.020;2022-10-17T23:29:40;17.30;99.90
10306;DHT22;5198;52.382;9.020;2022-10-17T23:33:43;17.20;99.90
10306;DHT22;5198;52.382;9.020;2022-10-17T23:37:48;17.30;99.90
10306;DHT22;5198;52.382;9.020;2022-10-17T23:41:51;17.30;99.90
10306;DHT22;5198;52.382;9.020;2022-10-17T23:45:54;17.20;99.90
10306;DHT22;5198;52.382;9.020;2022-10-17T23:49:56;17.20;99.90
10306;DHT22;5198;52.382;9.020;2022-10-17T23:54:01;17.20;99.90
10306;DHT22;5198;52.382;9.020;2022-10-17T23:58:05;17.10;99.90
